Brunswick, ME

08:06 EDT le 21 septembre 2014 (GMT -0400)
Brunswick Police Department | Change Station
CLOSE
Current Station
Stations météorologiques personnelles
Location: Brunswick, ME
Altitude: 89 ft
Stations météo à proximité

Alt. 89 ft 43.91 °N, 69.98 °W | Updated 6 minutes ago

Couvert
Couvert
60.5 ° F
Paraît 60.5 ° F
N
0.0
Vent Variable Vent de NNO
Gusts 0.0 mph

Aujourd'hui
Haut(e) -- | Bas -- ° F
--% Risque de précip.
Hier
Haut(e) -- | Bas -- ° F
Precip. -- pouce
6:25 AM 6:39 PM
Lune descendante, 7% visible
Pression 29.98 pouce
Visibilité 9.0 Miles terrestres
Nuages Peu 1400 ft
Peu 1900 ft
Couvert 3500 ft
Point de rosée 59 ° F
Humidité 96%
Précipitations 0.00 pouce
Profondeur de la couche neigeuse Non disponible.
UV 0 sur 12
Pollen 1.00 sur 12
Ozone Bon
PM2.5 Bon
Flu Activity Non disponible.
METAR KIWI 211153Z AUTO 00000KT 9SM FEW014 FEW019 OVC035 16/15 A2998 RMK AO2 RAB19E47 SLP152 P0002 60002 70002 T01610150 10161 20144 56003

More Conditions Fewer Conditions

Pression 29.98 pouce
Visibilité 9.0 Miles terrestres
Nuages Peu 1400 ft
Peu 1900 ft
Couvert 3500 ft
Point de rosée 59 ° F
Humidité 96%
Précipitations 0.00 pouce
Profondeur de la couche neigeuse Non disponible.
UV 0 sur 12
Pollen 1.00 sur 12
Ozone Bon
PM2.5 Bon
Flu Activity Non disponible.
METAR KIWI 211153Z AUTO 00000KT 9SM FEW014 FEW019 OVC035 16/15 A2998 RMK AO2 RAB19E47 SLP152 P0002 60002 70002 T01610150 10161 20144 56003

More Conditions Fewer Conditions

10-Day Weather Forecast

Almanac

Astronomie

Sep. 21, 2014 Lever Coucher
Temps réel 06:25 EDT 18:39 EDT
Crépuscule civil 05:57 EDT 19:07 EDT
Crépuscule nautique 05:23 EDT 19:41 EDT
Crépuscule astronomique 04:48 EDT 20:16 EDT
Lune 03:52 EDT 17:16 EDT
Durée de lumière visible 13h 10m
Longueur du jour
12h 13m
Tomorrow will be 3m 0s shorter.
Lune descendante, 7% of the Moon is Illuminated
Aujourd'hui
Lune descendante
Sep 24
Nouveau
Oct 1
Premier quartier
Oct 8
Pleine lune
Oct 15
Dernier quartier

Extrêmes aujourd'hui

State Highs State Lows

Community

WunderPhotos

Upload Photos

1,755,126 Photos téléchargées !

Nearby

Qualité de l'air

  Qualité de l'air Indice de la qualité de l'air Polluant
Hier Bon
OZONE
Hier Bon
PM2.5
Actuel Bon
PM2.5
Actuel Bon
OZONE
dimanche Bon
OZONE
dimanche Bon
PM2.5
lundi Bon
OZONE
lundi Bon
PM2.5
mardi Bon
OZONE
mardi Bon
PM2.5
mercredi Bon
OZONE
mercredi Bon
PM2.5

Épaisseur de neige

Station Depth Altitude
Pas de nouvelles chutes de neige

Activité sismique

Ville Distance Mag. Time & Date
No recent earthquake activity has been reported nearby.
Minimum magnitude displayed is 2.5.

Températures des eaux côtières

Lieu Température
Portland, ME 57.9 ° F
Wells, ME 57.0 ° F

Stations météo à proximité